sensor_id;sensor_type;location;lat;lon;timestamp;P1;durP1;ratioP1;P2;durP2;ratioP2
71622;SDS011;59473;53.214;5.728;2023-09-19T00:00:22;9.37;;;2.00;;
71622;SDS011;59473;53.214;5.728;2023-09-19T00:02:54;11.45;;;2.22;;
71622;SDS011;59473;53.214;5.728;2023-09-19T00:05:22;11.07;;;2.10;;
71622;SDS011;59473;53.214;5.728;2023-09-19T00:07:49;13.40;;;2.27;;
71622;SDS011;59473;53.214;5.728;2023-09-19T00:10:15;12.80;;;1.80;;
71622;SDS011;59473;53.214;5.728;2023-09-19T00:12:42;8.70;;;2.20;;
71622;SDS011;59473;53.214;5.728;2023-09-19T00:15:08;8.05;;;1.70;;
71622;SDS011;59473;53.214;5.728;2023-09-19T00:17:35;8.43;;;1.73;;
71622;SDS011;59473;53.214;5.728;2023-09-19T00:20:02;10.93;;;1.88;;
71622;SDS011;59473;53.214;5.728;2023-09-19T00:22:32;10.40;;;1.83;;
71622;SDS011;59473;53.214;5.728;2023-09-19T00:24:57;17.48;;;2.00;;
71622;SDS011;59473;53.214;5.728;2023-09-19T00:27:22;9.75;;;1.98;;
71622;SDS011;59473;53.214;5.728;2023-09-19T00:29:47;8.98;;;2.03;;
71622;SDS011;59473;53.214;5.728;2023-09-19T00:32:13;12.07;;;2.15;;
71622;SDS011;59473;53.214;5.728;2023-09-19T00:34:38;10.23;;;1.97;;
71622;SDS011;59473;53.214;5.728;2023-09-19T00:37:03;9.87;;;1.80;;
71622;SDS011;59473;53.214;5.728;2023-09-19T00:39:28;11.93;;;1.90;;
71622;SDS011;59473;53.214;5.728;2023-09-19T00:41:56;8.63;;;2.23;;
71622;SDS011;59473;53.214;5.728;2023-09-19T00:44:21;8.93;;;1.90;;
71622;SDS011;59473;53.214;5.728;2023-09-19T00:46:48;9.90;;;2.10;;
71622;SDS011;59473;53.214;5.728;2023-09-19T00:49:15;7.50;;;1.67;;
71622;SDS011;59473;53.214;5.728;2023-09-19T00:51:41;9.60;;;2.28;;
71622;SDS011;59473;53.214;5.728;2023-09-19T00:54:11;7.63;;;1.80;;
71622;SDS011;59473;53.214;5.728;2023-09-19T00:56:37;11.43;;;1.92;;
71622;SDS011;59473;53.214;5.728;2023-09-19T00:59:05;8.07;;;1.90;;
71622;SDS011;59473;53.214;5.728;2023-09-19T01:01:31;9.07;;;1.83;;
71622;SDS011;59473;53.214;5.728;2023-09-19T01:03:56;9.30;;;1.65;;
71622;SDS011;59473;53.214;5.728;2023-09-19T01:06:22;11.30;;;2.00;;
71622;SDS011;59473;53.214;5.728;2023-09-19T01:08:47;8.77;;;1.90;;
71622;SDS011;59473;53.214;5.728;2023-09-19T01:11:25;10.13;;;2.10;;
71622;SDS011;59473;53.214;5.728;2023-09-19T01:24:26;10.07;;;2.05;;
71622;SDS011;59473;53.214;5.728;2023-09-19T01:29:46;11.63;;;1.92;;
71622;SDS011;59473;53.214;5.728;2023-09-19T01:32:17;11.93;;;2.38;;
71622;SDS011;59473;53.214;5.728;2023-09-19T01:34:50;11.13;;;1.80;;
71622;SDS011;59473;53.214;5.728;2023-09-19T01:37:16;13.63;;;2.40;;
71622;SDS011;59473;53.214;5.728;2023-09-19T01:40:08;9.70;;;2.07;;
71622;SDS011;59473;53.214;5.728;2023-09-19T01:42:53;12.60;;;1.90;;
71622;SDS011;59473;53.214;5.728;2023-09-19T01:47:51;10.70;;;1.67;;
71622;SDS011;59473;53.214;5.728;2023-09-19T01:50:29;7.32;;;1.58;;
71622;SDS011;59473;53.214;5.728;2023-09-19T01:53:07;7.68;;;1.67;;
71622;SDS011;59473;53.214;5.728;2023-09-19T01:55:41;8.57;;;1.83;;
71622;SDS011;59473;53.214;5.728;2023-09-19T02:00:38;9.93;;;1.60;;
71622;SDS011;59473;53.214;5.728;2023-09-19T02:03:05;7.15;;;1.60;;
71622;SDS011;59473;53.214;5.728;2023-09-19T02:05:30;7.40;;;1.93;;
71622;SDS011;59473;53.214;5.728;2023-09-19T02:07:55;7.10;;;1.60;;
71622;SDS011;59473;53.214;5.728;2023-09-19T02:10:21;8.50;;;1.60;;
71622;SDS011;59473;53.214;5.728;2023-09-19T02:12:47;8.45;;;1.85;;
71622;SDS011;59473;53.214;5.728;2023-09-19T02:15:12;11.53;;;2.43;;
71622;SDS011;59473;53.214;5.728;2023-09-19T02:17:37;9.23;;;2.00;;
71622;SDS011;59473;53.214;5.728;2023-09-19T02:20:03;10.80;;;1.73;;
71622;SDS011;59473;53.214;5.728;2023-09-19T02:22:36;10.02;;;1.58;;
71622;SDS011;59473;53.214;5.728;2023-09-19T02:25:01;8.75;;;1.85;;
71622;SDS011;59473;53.214;5.728;2023-09-19T02:27:26;6.67;;;1.77;;
71622;SDS011;59473;53.214;5.728;2023-09-19T02:29:52;10.23;;;2.30;;
71622;SDS011;59473;53.214;5.728;2023-09-19T02:32:17;12.60;;;1.80;;
71622;SDS011;59473;53.214;5.728;2023-09-19T02:34:43;10.53;;;2.00;;
71622;SDS011;59473;53.214;5.728;2023-09-19T02:37:09;10.05;;;2.03;;
71622;SDS011;59473;53.214;5.728;2023-09-19T02:39:35;7.88;;;1.50;;
71622;SDS011;59473;53.214;5.728;2023-09-19T02:42:01;10.20;;;1.80;;
71622;SDS011;59473;53.214;5.728;2023-09-19T02:44:26;8.10;;;2.13;;
71622;SDS011;59473;53.214;5.728;2023-09-19T02:46:52;6.32;;;1.30;;
71622;SDS011;59473;53.214;5.728;2023-09-19T02:49:17;10.20;;;1.90;;
71622;SDS011;59473;53.214;5.728;2023-09-19T02:51:43;10.40;;;1.80;;
71622;SDS011;59473;53.214;5.728;2023-09-19T02:54:08;9.83;;;1.77;;
71622;SDS011;59473;53.214;5.728;2023-09-19T02:56:33;7.37;;;1.40;;
71622;SDS011;59473;53.214;5.728;2023-09-19T02:59:00;6.45;;;1.58;;
71622;SDS011;59473;53.214;5.728;2023-09-19T03:01:26;7.40;;;1.80;;
71622;SDS011;59473;53.214;5.728;2023-09-19T03:03:51;7.78;;;2.03;;
71622;SDS011;59473;53.214;5.728;2023-09-19T03:06:18;10.38;;;2.00;;
71622;SDS011;59473;53.214;5.728;2023-09-19T03:08:44;6.38;;;1.35;;
71622;SDS011;59473;53.214;5.728;2023-09-19T03:11:11;10.80;;;2.00;;
71622;SDS011;59473;53.214;5.728;2023-09-19T03:13:38;10.95;;;1.77;;
71622;SDS011;59473;53.214;5.728;2023-09-19T03:16:06;10.45;;;2.03;;
71622;SDS011;59473;53.214;5.728;2023-09-19T03:18:32;9.13;;;1.85;;
71622;SDS011;59473;53.214;5.728;2023-09-19T03:20:58;9.27;;;2.05;;
71622;SDS011;59473;53.214;5.728;2023-09-19T03:23:27;4.70;;;1.83;;
71622;SDS011;59473;53.214;5.728;2023-09-19T03:25:53;9.93;;;1.95;;
71622;SDS011;59473;53.214;5.728;2023-09-19T03:28:18;9.00;;;1.80;;
71622;SDS011;59473;53.214;5.728;2023-09-19T03:30:45;10.20;;;2.10;;
71622;SDS011;59473;53.214;5.728;2023-09-19T03:33:11;8.07;;;1.97;;
71622;SDS011;59473;53.214;5.728;2023-09-19T03:35:37;10.60;;;2.42;;
71622;SDS011;59473;53.214;5.728;2023-09-19T03:38:03;11.95;;;2.42;;
71622;SDS011;59473;53.214;5.728;2023-09-19T03:40:28;11.37;;;1.73;;
71622;SDS011;59473;53.214;5.728;2023-09-19T03:42:53;10.00;;;2.43;;
71622;SDS011;59473;53.214;5.728;2023-09-19T03:45:19;6.57;;;1.70;;
71622;SDS011;59473;53.214;5.728;2023-09-19T03:47:45;7.93;;;1.80;;
71622;SDS011;59473;53.214;5.728;2023-09-19T03:50:12;7.67;;;1.57;;
71622;SDS011;59473;53.214;5.728;2023-09-19T03:52:40;11.13;;;2.20;;
71622;SDS011;59473;53.214;5.728;2023-09-19T03:55:05;9.27;;;2.03;;
71622;SDS011;59473;53.214;5.728;2023-09-19T03:57:31;13.85;;;2.13;;
71622;SDS011;59473;53.214;5.728;2023-09-19T03:59:56;7.95;;;1.67;;
71622;SDS011;59473;53.214;5.728;2023-09-19T04:02:22;8.73;;;1.93;;
71622;SDS011;59473;53.214;5.728;2023-09-19T04:04:48;10.10;;;1.90;;
71622;SDS011;59473;53.214;5.728;2023-09-19T04:07:13;9.73;;;2.10;;
71622;SDS011;59473;53.214;5.728;2023-09-19T04:09:38;10.37;;;2.23;;
71622;SDS011;59473;53.214;5.728;2023-09-19T04:12:04;10.10;;;1.70;;
71622;SDS011;59473;53.214;5.728;2023-09-19T04:14:30;8.45;;;1.70;;
71622;SDS011;59473;53.214;5.728;2023-09-19T04:16:55;12.40;;;2.20;;
71622;SDS011;59473;53.214;5.728;2023-09-19T04:19:20;10.83;;;2.27;;
71622;SDS011;59473;53.214;5.728;2023-09-19T04:21:48;8.95;;;1.85;;
71622;SDS011;59473;53.214;5.728;2023-09-19T04:24:13;12.50;;;2.13;;
71622;SDS011;59473;53.214;5.728;2023-09-19T04:26:39;11.05;;;1.92;;
71622;SDS011;59473;53.214;5.728;2023-09-19T04:29:04;6.07;;;1.77;;
71622;SDS011;59473;53.214;5.728;2023-09-19T04:31:30;11.47;;;1.77;;
71622;SDS011;59473;53.214;5.728;2023-09-19T04:33:56;10.45;;;2.28;;
71622;SDS011;59473;53.214;5.728;2023-09-19T04:36:22;10.25;;;1.95;;
71622;SDS011;59473;53.214;5.728;2023-09-19T04:38:48;7.97;;;2.10;;
71622;SDS011;59473;53.214;5.728;2023-09-19T04:41:13;7.13;;;1.70;;
71622;SDS011;59473;53.214;5.728;2023-09-19T04:43:40;10.05;;;1.75;;
71622;SDS011;59473;53.214;5.728;2023-09-19T04:46:05;8.90;;;1.70;;
71622;SDS011;59473;53.214;5.728;2023-09-19T04:48:31;7.72;;;2.22;;
71622;SDS011;59473;53.214;5.728;2023-09-19T04:50:57;10.23;;;2.00;;
71622;SDS011;59473;53.214;5.728;2023-09-19T04:53:22;10.70;;;1.83;;
71622;SDS011;59473;53.214;5.728;2023-09-19T04:55:51;12.47;;;2.00;;
71622;SDS011;59473;53.214;5.728;2023-09-19T04:58:17;11.57;;;2.17;;
71622;SDS011;59473;53.214;5.728;2023-09-19T05:00:44;9.18;;;2.22;;
71622;SDS011;59473;53.214;5.728;2023-09-19T05:03:09;14.13;;;2.80;;
71622;SDS011;59473;53.214;5.728;2023-09-19T05:05:34;6.97;;;2.27;;
71622;SDS011;59473;53.214;5.728;2023-09-19T05:08:00;12.93;;;1.93;;
71622;SDS011;59473;53.214;5.728;2023-09-19T05:10:25;10.37;;;2.03;;
71622;SDS011;59473;53.214;5.728;2023-09-19T05:12:52;11.10;;;2.23;;
71622;SDS011;59473;53.214;5.728;2023-09-19T05:15:18;12.57;;;2.08;;
71622;SDS011;59473;53.214;5.728;2023-09-19T05:17:49;9.67;;;1.90;;
71622;SDS011;59473;53.214;5.728;2023-09-19T05:20:16;10.38;;;1.90;;
71622;SDS011;59473;53.214;5.728;2023-09-19T05:22:44;15.17;;;2.23;;
71622;SDS011;59473;53.214;5.728;2023-09-19T05:25:11;10.50;;;1.98;;
71622;SDS011;59473;53.214;5.728;2023-09-19T05:27:41;9.85;;;1.77;;
71622;SDS011;59473;53.214;5.728;2023-09-19T05:30:07;9.83;;;2.17;;
71622;SDS011;59473;53.214;5.728;2023-09-19T05:32:33;14.30;;;2.20;;
71622;SDS011;59473;53.214;5.728;2023-09-19T05:34:58;8.47;;;1.77;;
71622;SDS011;59473;53.214;5.728;2023-09-19T05:37:23;10.73;;;2.13;;
71622;SDS011;59473;53.214;5.728;2023-09-19T05:39:50;11.40;;;2.88;;
71622;SDS011;59473;53.214;5.728;2023-09-19T05:42:16;12.23;;;1.97;;
71622;SDS011;59473;53.214;5.728;2023-09-19T05:44:41;10.10;;;1.97;;
71622;SDS011;59473;53.214;5.728;2023-09-19T05:47:06;10.90;;;1.80;;
71622;SDS011;59473;53.214;5.728;2023-09-19T05:49:34;10.57;;;1.90;;
71622;SDS011;59473;53.214;5.728;2023-09-19T05:51:59;7.43;;;1.53;;
71622;SDS011;59473;53.214;5.728;2023-09-19T05:54:26;9.68;;;1.92;;
71622;SDS011;59473;53.214;5.728;2023-09-19T05:56:52;11.80;;;2.07;;
71622;SDS011;59473;53.214;5.728;2023-09-19T05:59:18;11.45;;;2.25;;
71622;SDS011;59473;53.214;5.728;2023-09-19T06:01:43;12.33;;;1.90;;
71622;SDS011;59473;53.214;5.728;2023-09-19T06:04:09;7.63;;;1.80;;
71622;SDS011;59473;53.214;5.728;2023-09-19T06:06:34;11.10;;;2.40;;
71622;SDS011;59473;53.214;5.728;2023-09-19T06:09:03;11.57;;;2.33;;
71622;SDS011;59473;53.214;5.728;2023-09-19T06:11:30;10.45;;;1.98;;
71622;SDS011;59473;53.214;5.728;2023-09-19T06:13:57;9.18;;;2.08;;
71622;SDS011;59473;53.214;5.728;2023-09-19T06:16:22;9.27;;;2.10;;
71622;SDS011;59473;53.214;5.728;2023-09-19T06:18:48;10.90;;;1.75;;
71622;SDS011;59473;53.214;5.728;2023-09-19T06:21:14;8.10;;;2.00;;
71622;SDS011;59473;53.214;5.728;2023-09-19T06:23:39;8.00;;;1.53;;
71622;SDS011;59473;53.214;5.728;2023-09-19T06:26:06;14.02;;;1.85;;
71622;SDS011;59473;53.214;5.728;2023-09-19T06:28:32;9.65;;;1.77;;
71622;SDS011;59473;53.214;5.728;2023-09-19T06:30:58;10.00;;;1.98;;
71622;SDS011;59473;53.214;5.728;2023-09-19T06:33:24;8.23;;;2.03;;
71622;SDS011;59473;53.214;5.728;2023-09-19T06:35:49;6.70;;;1.60;;
71622;SDS011;59473;53.214;5.728;2023-09-19T06:38:17;11.32;;;2.00;;
71622;SDS011;59473;53.214;5.728;2023-09-19T06:40:44;11.38;;;2.00;;
71622;SDS011;59473;53.214;5.728;2023-09-19T06:43:12;7.97;;;2.07;;
71622;SDS011;59473;53.214;5.728;2023-09-19T06:45:37;9.40;;;1.63;;
71622;SDS011;59473;53.214;5.728;2023-09-19T06:48:02;14.33;;;1.90;;
71622;SDS011;59473;53.214;5.728;2023-09-19T06:50:28;8.77;;;1.90;;
71622;SDS011;59473;53.214;5.728;2023-09-19T06:52:56;9.98;;;2.00;;
71622;SDS011;59473;53.214;5.728;2023-09-19T06:55:24;12.65;;;1.90;;
71622;SDS011;59473;53.214;5.728;2023-09-19T06:57:52;10.32;;;2.10;;
71622;SDS011;59473;53.214;5.728;2023-09-19T07:00:19;9.57;;;1.80;;
71622;SDS011;59473;53.214;5.728;2023-09-19T07:03:05;11.15;;;2.20;;
71622;SDS011;59473;53.214;5.728;2023-09-19T07:05:33;8.70;;;1.63;;
71622;SDS011;59473;53.214;5.728;2023-09-19T07:07:58;7.53;;;1.70;;
71622;SDS011;59473;53.214;5.728;2023-09-19T07:10:24;12.20;;;1.83;;
71622;SDS011;59473;53.214;5.728;2023-09-19T07:15:42;11.65;;;1.92;;
71622;SDS011;59473;53.214;5.728;2023-09-19T07:18:16;11.88;;;1.95;;
71622;SDS011;59473;53.214;5.728;2023-09-19T07:20:45;11.40;;;2.30;;
71622;SDS011;59473;53.214;5.728;2023-09-19T07:23:14;11.30;;;2.60;;
71622;SDS011;59473;53.214;5.728;2023-09-19T07:25:40;13.15;;;2.42;;
71622;SDS011;59473;53.214;5.728;2023-09-19T07:28:05;14.70;;;1.97;;
71622;SDS011;59473;53.214;5.728;2023-09-19T07:30:30;13.03;;;2.07;;
71622;SDS011;59473;53.214;5.728;2023-09-19T07:32:56;13.50;;;2.00;;
71622;SDS011;59473;53.214;5.728;2023-09-19T07:35:21;12.68;;;1.98;;
71622;SDS011;59473;53.214;5.728;2023-09-19T07:37:47;10.15;;;1.90;;
71622;SDS011;59473;53.214;5.728;2023-09-19T07:40:16;13.67;;;2.00;;
71622;SDS011;59473;53.214;5.728;2023-09-19T07:42:41;13.20;;;1.90;;
71622;SDS011;59473;53.214;5.728;2023-09-19T07:45:09;11.32;;;2.00;;
71622;SDS011;59473;53.214;5.728;2023-09-19T07:47:38;8.95;;;2.13;;
71622;SDS011;59473;53.214;5.728;2023-09-19T07:50:04;10.70;;;1.70;;
71622;SDS011;59473;53.214;5.728;2023-09-19T07:52:29;8.97;;;1.70;;
71622;SDS011;59473;53.214;5.728;2023-09-19T07:54:54;12.63;;;2.13;;
71622;SDS011;59473;53.214;5.728;2023-09-19T07:57:20;12.70;;;1.87;;
71622;SDS011;59473;53.214;5.728;2023-09-19T07:59:45;9.27;;;1.80;;
71622;SDS011;59473;53.214;5.728;2023-09-19T08:02:10;11.73;;;2.20;;
71622;SDS011;59473;53.214;5.728;2023-09-19T08:04:43;11.45;;;1.90;;
71622;SDS011;59473;53.214;5.728;2023-09-19T08:07:11;11.63;;;1.98;;
71622;SDS011;59473;53.214;5.728;2023-09-19T08:09:36;9.40;;;1.67;;
71622;SDS011;59473;53.214;5.728;2023-09-19T08:12:03;11.88;;;2.10;;
71622;SDS011;59473;53.214;5.728;2023-09-19T08:14:29;11.07;;;1.50;;
71622;SDS011;59473;53.214;5.728;2023-09-19T08:16:57;10.23;;;2.07;;
71622;SDS011;59473;53.214;5.728;2023-09-19T08:19:24;17.40;;;2.40;;
71622;SDS011;59473;53.214;5.728;2023-09-19T08:21:55;11.30;;;1.77;;
71622;SDS011;59473;53.214;5.728;2023-09-19T08:24:20;10.32;;;1.85;;
71622;SDS011;59473;53.214;5.728;2023-09-19T08:26:45;10.60;;;1.93;;
71622;SDS011;59473;53.214;5.728;2023-09-19T08:29:11;12.80;;;2.13;;
71622;SDS011;59473;53.214;5.728;2023-09-19T08:31:37;12.07;;;2.50;;
71622;SDS011;59473;53.214;5.728;2023-09-19T08:34:03;12.83;;;2.00;;
71622;SDS011;59473;53.214;5.728;2023-09-19T08:36:28;14.77;;;1.90;;
71622;SDS011;59473;53.214;5.728;2023-09-19T08:38:53;11.07;;;1.73;;
71622;SDS011;59473;53.214;5.728;2023-09-19T08:41:18;10.93;;;2.33;;
71622;SDS011;59473;53.214;5.728;2023-09-19T08:43:44;11.30;;;2.00;;
71622;SDS011;59473;53.214;5.728;2023-09-19T08:46:10;12.27;;;2.27;;
71622;SDS011;59473;53.214;5.728;2023-09-19T08:48:39;8.90;;;1.73;;
71622;SDS011;59473;53.214;5.728;2023-09-19T08:51:13;16.15;;;2.22;;
71622;SDS011;59473;53.214;5.728;2023-09-19T08:53:51;7.82;;;1.63;;
71622;SDS011;59473;53.214;5.728;2023-09-19T08:56:17;9.97;;;1.87;;
71622;SDS011;59473;53.214;5.728;2023-09-19T08:58:44;15.02;;;2.20;;
71622;SDS011;59473;53.214;5.728;2023-09-19T09:01:12;12.95;;;2.47;;
71622;SDS011;59473;53.214;5.728;2023-09-19T09:03:39;12.63;;;1.85;;
71622;SDS011;59473;53.214;5.728;2023-09-19T09:06:05;16.30;;;2.47;;
71622;SDS011;59473;53.214;5.728;2023-09-19T09:08:32;14.17;;;2.23;;
71622;SDS011;59473;53.214;5.728;2023-09-19T09:10:58;10.73;;;1.83;;
71622;SDS011;59473;53.214;5.728;2023-09-19T09:13:24;14.20;;;1.90;;
71622;SDS011;59473;53.214;5.728;2023-09-19T09:15:51;13.45;;;2.10;;
71622;SDS011;59473;53.214;5.728;2023-09-19T09:18:16;12.37;;;2.27;;
71622;SDS011;59473;53.214;5.728;2023-09-19T09:20:42;11.93;;;1.85;;
71622;SDS011;59473;53.214;5.728;2023-09-19T09:23:09;11.50;;;2.00;;
71622;SDS011;59473;53.214;5.728;2023-09-19T09:25:50;14.00;;;2.20;;
71622;SDS011;59473;53.214;5.728;2023-09-19T09:28:20;13.00;;;2.55;;
71622;SDS011;59473;53.214;5.728;2023-09-19T09:30:45;9.95;;;1.75;;
71622;SDS011;59473;53.214;5.728;2023-09-19T09:33:11;13.93;;;2.00;;
71622;SDS011;59473;53.214;5.728;2023-09-19T09:35:37;9.00;;;1.80;;
71622;SDS011;59473;53.214;5.728;2023-09-19T09:38:12;14.13;;;2.20;;
71622;SDS011;59473;53.214;5.728;2023-09-19T09:40:51;8.32;;;1.70;;
71622;SDS011;59473;53.214;5.728;2023-09-19T09:43:35;11.65;;;2.00;;
71622;SDS011;59473;53.214;5.728;2023-09-19T09:46:10;13.17;;;2.43;;
71622;SDS011;59473;53.214;5.728;2023-09-19T09:49:03;12.68;;;1.95;;
71622;SDS011;59473;53.214;5.728;2023-09-19T09:52:04;13.80;;;2.00;;
71622;SDS011;59473;53.214;5.728;2023-09-19T09:55:00;13.05;;;2.63;;
71622;SDS011;59473;53.214;5.728;2023-09-19T09:57:35;11.73;;;1.80;;
71622;SDS011;59473;53.214;5.728;2023-09-19T10:00:00;10.00;;;1.60;;
71622;SDS011;59473;53.214;5.728;2023-09-19T10:02:38;11.80;;;1.80;;
71622;SDS011;59473;53.214;5.728;2023-09-19T10:05:15;12.90;;;2.13;;
71622;SDS011;59473;53.214;5.728;2023-09-19T10:07:53;13.93;;;2.40;;
71622;SDS011;59473;53.214;5.728;2023-09-19T10:13:03;9.70;;;1.97;;
71622;SDS011;59473;53.214;5.728;2023-09-19T10:15:31;11.25;;;1.70;;
71622;SDS011;59473;53.214;5.728;2023-09-19T10:17:57;9.93;;;2.00;;
71622;SDS011;59473;53.214;5.728;2023-09-19T10:20:26;10.82;;;1.75;;
71622;SDS011;59473;53.214;5.728;2023-09-19T10:22:57;11.35;;;1.75;;
71622;SDS011;59473;53.214;5.728;2023-09-19T10:25:25;13.20;;;1.80;;
71622;SDS011;59473;53.214;5.728;2023-09-19T10:27:50;12.15;;;1.73;;
71622;SDS011;59473;53.214;5.728;2023-09-19T10:30:18;13.35;;;1.98;;
71622;SDS011;59473;53.214;5.728;2023-09-19T10:32:45;11.05;;;1.63;;
71622;SDS011;59473;53.214;5.728;2023-09-19T10:35:12;11.73;;;1.90;;
71622;SDS011;59473;53.214;5.728;2023-09-19T10:37:39;13.73;;;1.90;;
71622;SDS011;59473;53.214;5.728;2023-09-19T10:40:06;13.45;;;1.77;;
71622;SDS011;59473;53.214;5.728;2023-09-19T10:42:33;10.98;;;2.05;;
71622;SDS011;59473;53.214;5.728;2023-09-19T10:45:03;9.90;;;2.00;;
71622;SDS011;59473;53.214;5.728;2023-09-19T10:47:32;18.45;;;2.25;;
71622;SDS011;59473;53.214;5.728;2023-09-19T10:49:57;13.27;;;2.37;;
71622;SDS011;59473;53.214;5.728;2023-09-19T10:52:23;12.63;;;2.37;;
71622;SDS011;59473;53.214;5.728;2023-09-19T10:54:51;10.70;;;2.15;;
71622;SDS011;59473;53.214;5.728;2023-09-19T10:57:19;12.98;;;2.42;;
71622;SDS011;59473;53.214;5.728;2023-09-19T11:00:04;13.07;;;2.15;;
71622;SDS011;59473;53.214;5.728;2023-09-19T11:03:15;13.10;;;3.38;;
71622;SDS011;59473;53.214;5.728;2023-09-19T11:05:31;11.93;;;1.97;;
71622;SDS011;59473;53.214;5.728;2023-09-19T11:07:57;10.35;;;2.33;;
71622;SDS011;59473;53.214;5.728;2023-09-19T11:18:50;12.40;;;2.17;;
71622;SDS011;59473;53.214;5.728;2023-09-19T11:26:57;9.07;;;2.00;;
71622;SDS011;59473;53.214;5.728;2023-09-19T11:29:33;13.75;;;2.33;;
71622;SDS011;59473;53.214;5.728;2023-09-19T11:31:58;15.97;;;2.57;;
71622;SDS011;59473;53.214;5.728;2023-09-19T11:37:01;11.73;;;2.77;;
71622;SDS011;59473;53.214;5.728;2023-09-19T11:39:29;12.45;;;2.67;;
71622;SDS011;59473;53.214;5.728;2023-09-19T11:41:54;14.32;;;2.72;;
71622;SDS011;59473;53.214;5.728;2023-09-19T11:44:31;15.03;;;2.70;;
71622;SDS011;59473;53.214;5.728;2023-09-19T11:46:59;13.85;;;2.45;;
71622;SDS011;59473;53.214;5.728;2023-09-19T11:49:28;15.60;;;2.80;;
71622;SDS011;59473;53.214;5.728;2023-09-19T11:52:01;13.23;;;2.95;;
71622;SDS011;59473;53.214;5.728;2023-09-19T11:54:30;14.80;;;2.80;;
71622;SDS011;59473;53.214;5.728;2023-09-19T11:56:57;12.00;;;2.53;;
71622;SDS011;59473;53.214;5.728;2023-09-19T12:01:54;11.73;;;2.53;;
71622;SDS011;59473;53.214;5.728;2023-09-19T12:04:23;10.80;;;2.47;;
71622;SDS011;59473;53.214;5.728;2023-09-19T12:06:58;12.20;;;2.60;;
71622;SDS011;59473;53.214;5.728;2023-09-19T12:09:24;9.77;;;1.95;;
71622;SDS011;59473;53.214;5.728;2023-09-19T12:11:50;12.07;;;2.72;;
71622;SDS011;59473;53.214;5.728;2023-09-19T12:14:23;8.93;;;1.80;;
71622;SDS011;59473;53.214;5.728;2023-09-19T12:16:54;10.00;;;2.08;;
71622;SDS011;59473;53.214;5.728;2023-09-19T12:19:20;9.18;;;2.20;;
71622;SDS011;59473;53.214;5.728;2023-09-19T12:22:05;11.98;;;2.20;;
71622;SDS011;59473;53.214;5.728;2023-09-19T12:24:31;12.40;;;2.30;;
71622;SDS011;59473;53.214;5.728;2023-09-19T12:27:00;11.23;;;2.27;;
71622;SDS011;59473;53.214;5.728;2023-09-19T12:29:29;14.85;;;2.00;;
71622;SDS011;59473;53.214;5.728;2023-09-19T12:31:55;11.40;;;2.00;;
71622;SDS011;59473;53.214;5.728;2023-09-19T12:34:27;7.60;;;1.92;;
71622;SDS011;59473;53.214;5.728;2023-09-19T12:39:41;10.48;;;2.28;;
71622;SDS011;59473;53.214;5.728;2023-09-19T12:42:08;9.93;;;1.90;;
71622;SDS011;59473;53.214;5.728;2023-09-19T12:44:35;10.80;;;2.20;;
71622;SDS011;59473;53.214;5.728;2023-09-19T12:47:00;8.07;;;1.88;;
71622;SDS011;59473;53.214;5.728;2023-09-19T12:49:26;8.70;;;1.92;;
71622;SDS011;59473;53.214;5.728;2023-09-19T12:51:54;7.75;;;2.08;;
71622;SDS011;59473;53.214;5.728;2023-09-19T12:54:19;10.93;;;2.33;;
71622;SDS011;59473;53.214;5.728;2023-09-19T12:56:47;9.82;;;2.15;;
71622;SDS011;59473;53.214;5.728;2023-09-19T12:59:14;8.88;;;2.38;;
71622;SDS011;59473;53.214;5.728;2023-09-19T13:01:40;9.25;;;2.00;;
71622;SDS011;59473;53.214;5.728;2023-09-19T13:06:37;9.17;;;2.30;;
71622;SDS011;59473;53.214;5.728;2023-09-19T13:09:10;9.48;;;2.17;;
71622;SDS011;59473;53.214;5.728;2023-09-19T13:11:36;10.68;;;1.90;;
71622;SDS011;59473;53.214;5.728;2023-09-19T13:19:42;9.53;;;2.00;;
71622;SDS011;59473;53.214;5.728;2023-09-19T13:25:08;9.85;;;2.20;;
71622;SDS011;59473;53.214;5.728;2023-09-19T13:27:38;11.48;;;2.15;;
71622;SDS011;59473;53.214;5.728;2023-09-19T13:30:04;9.77;;;2.23;;
71622;SDS011;59473;53.214;5.728;2023-09-19T13:32:31;11.18;;;2.10;;
71622;SDS011;59473;53.214;5.728;2023-09-19T13:34:56;9.33;;;2.47;;
71622;SDS011;59473;53.214;5.728;2023-09-19T13:37:22;9.32;;;1.90;;
71622;SDS011;59473;53.214;5.728;2023-09-19T13:39:48;11.70;;;2.07;;
71622;SDS011;59473;53.214;5.728;2023-09-19T13:42:13;11.43;;;2.00;;
71622;SDS011;59473;53.214;5.728;2023-09-19T13:44:39;12.75;;;2.40;;
71622;SDS011;59473;53.214;5.728;2023-09-19T13:47:06;10.63;;;2.10;;
71622;SDS011;59473;53.214;5.728;2023-09-19T13:49:34;13.48;;;2.10;;
71622;SDS011;59473;53.214;5.728;2023-09-19T13:52:00;12.25;;;2.80;;
71622;SDS011;59473;53.214;5.728;2023-09-19T13:54:28;9.60;;;2.50;;
71622;SDS011;59473;53.214;5.728;2023-09-19T13:56:53;13.90;;;2.03;;
71622;SDS011;59473;53.214;5.728;2023-09-19T13:59:18;8.70;;;2.00;;
71622;SDS011;59473;53.214;5.728;2023-09-19T14:01:44;12.13;;;2.47;;
71622;SDS011;59473;53.214;5.728;2023-09-19T14:04:09;8.97;;;2.53;;
71622;SDS011;59473;53.214;5.728;2023-09-19T14:06:36;9.73;;;2.53;;
71622;SDS011;59473;53.214;5.728;2023-09-19T14:09:02;10.37;;;2.80;;
71622;SDS011;59473;53.214;5.728;2023-09-19T14:11:29;13.98;;;2.67;;
71622;SDS011;59473;53.214;5.728;2023-09-19T14:13:54;7.77;;;1.77;;
71622;SDS011;59473;53.214;5.728;2023-09-19T14:16:19;12.30;;;2.27;;
71622;SDS011;59473;53.214;5.728;2023-09-19T14:18:47;12.85;;;2.33;;
71622;SDS011;59473;53.214;5.728;2023-09-19T14:21:12;11.67;;;2.37;;
71622;SDS011;59473;53.214;5.728;2023-09-19T14:23:38;10.97;;;2.10;;
71622;SDS011;59473;53.214;5.728;2023-09-19T14:26:03;13.20;;;2.93;;
71622;SDS011;59473;53.214;5.728;2023-09-19T14:28:30;20.13;;;2.85;;
71622;SDS011;59473;53.214;5.728;2023-09-19T14:30:55;13.20;;;2.80;;
71622;SDS011;59473;53.214;5.728;2023-09-19T14:33:20;15.17;;;3.77;;
71622;SDS011;59473;53.214;5.728;2023-09-19T14:35:45;14.77;;;2.83;;
71622;SDS011;59473;53.214;5.728;2023-09-19T14:38:11;22.07;;;3.13;;
71622;SDS011;59473;53.214;5.728;2023-09-19T14:40:36;13.27;;;2.87;;
71622;SDS011;59473;53.214;5.728;2023-09-19T14:43:02;12.23;;;2.30;;
71622;SDS011;59473;53.214;5.728;2023-09-19T14:45:28;16.23;;;3.08;;
71622;SDS011;59473;53.214;5.728;2023-09-19T14:47:53;15.70;;;3.13;;
71622;SDS011;59473;53.214;5.728;2023-09-19T14:50:21;17.00;;;2.67;;
71622;SDS011;59473;53.214;5.728;2023-09-19T14:52:47;14.15;;;3.25;;
71622;SDS011;59473;53.214;5.728;2023-09-19T14:55:14;16.77;;;3.03;;
71622;SDS011;59473;53.214;5.728;2023-09-19T14:57:40;19.90;;;3.00;;
71622;SDS011;59473;53.214;5.728;2023-09-19T15:00:06;17.95;;;2.28;;
71622;SDS011;59473;53.214;5.728;2023-09-19T15:02:36;18.52;;;2.88;;
71622;SDS011;59473;53.214;5.728;2023-09-19T15:05:02;16.63;;;2.93;;
71622;SDS011;59473;53.214;5.728;2023-09-19T15:07:28;19.58;;;3.58;;
71622;SDS011;59473;53.214;5.728;2023-09-19T15:09:54;17.63;;;2.90;;
71622;SDS011;59473;53.214;5.728;2023-09-19T15:12:19;20.97;;;3.23;;
71622;SDS011;59473;53.214;5.728;2023-09-19T15:14:44;22.90;;;3.57;;
71622;SDS011;59473;53.214;5.728;2023-09-19T15:17:09;18.23;;;3.53;;
71622;SDS011;59473;53.214;5.728;2023-09-19T15:19:35;17.73;;;3.17;;
71622;SDS011;59473;53.214;5.728;2023-09-19T15:22:00;15.07;;;2.73;;
71622;SDS011;59473;53.214;5.728;2023-09-19T15:24:26;15.57;;;3.05;;
71622;SDS011;59473;53.214;5.728;2023-09-19T15:26:52;18.77;;;2.77;;
71622;SDS011;59473;53.214;5.728;2023-09-19T15:29:17;20.90;;;3.83;;
71622;SDS011;59473;53.214;5.728;2023-09-19T15:31:42;20.70;;;3.85;;
71622;SDS011;59473;53.214;5.728;2023-09-19T15:34:08;23.27;;;3.70;;
71622;SDS011;59473;53.214;5.728;2023-09-19T15:36:33;20.13;;;3.57;;